createdAt,value
2018-08-31T00:02:07.261Z,101715.09
2018-08-31T00:04:49.783Z,101716.84
2018-08-31T00:07:33.544Z,101718.12
2018-08-31T00:12:44.153Z,101710.59
2018-08-31T00:15:13.193Z,101721.14
2018-08-31T00:17:43.095Z,101718.88
2018-08-31T00:20:12.529Z,101716.02
2018-08-31T00:22:40.969Z,101719.30
2018-08-31T00:25:21.255Z,101719.99
2018-08-31T00:28:00.931Z,101720.69
2018-08-31T00:30:40.616Z,101713.75
2018-08-31T00:33:20.016Z,101717.53
2018-08-31T00:40:09.494Z,101717.38
2018-08-31T00:42:51.269Z,101720.88
2018-08-31T00:45:29.777Z,101714.44
2018-08-31T00:47:59.152Z,101712.92
2018-08-31T00:50:27.733Z,101713.39
2018-08-31T00:52:56.457Z,101717.63
2018-08-31T00:55:24.932Z,101718.70
2018-08-31T00:57:53.837Z,101727.30
2018-08-31T01:00:22.752Z,101724.71
2018-08-31T01:02:51.040Z,101720.73
2018-08-31T01:05:19.912Z,101723.44
2018-08-31T01:07:48.901Z,101721.31
2018-08-31T01:10:19.856Z,101723.66
2018-08-31T01:12:48.343Z,101721.92
2018-08-31T01:15:18.355Z,101714.41
2018-08-31T01:17:46.973Z,101712.56
2018-08-31T01:20:15.301Z,101720.30
2018-08-31T01:22:43.710Z,101713.64
2018-08-31T01:25:12.304Z,101718.25
2018-08-31T01:27:41.293Z,101727.34
2018-08-31T01:30:09.958Z,101723.77
2018-08-31T01:32:38.295Z,101720.22
2018-08-31T01:35:06.652Z,101719.72
2018-08-31T01:37:35.097Z,101717.91
2018-08-31T01:40:03.527Z,101720.22
2018-08-31T01:42:31.745Z,101717.20
2018-08-31T01:44:59.901Z,101719.55
2018-08-31T01:47:28.192Z,101723.67
2018-08-31T01:49:56.948Z,101722.83
2018-08-31T01:52:25.104Z,101725.63
2018-08-31T01:54:53.540Z,101725.63
2018-08-31T01:57:22.178Z,101719.35
2018-08-31T01:59:50.618Z,101729.76
2018-08-31T02:02:19.700Z,101727.28
2018-08-31T02:04:48.128Z,101713.48
2018-08-31T02:07:16.243Z,101727.97
2018-08-31T02:09:45.305Z,101723.14
2018-08-31T02:12:13.904Z,101719.39
2018-08-31T02:14:42.462Z,101719.50
2018-08-31T02:17:11.248Z,101722.77
2018-08-31T02:19:40.678Z,101718.80
2018-08-31T02:22:09.307Z,101723.92
2018-08-31T02:24:38.215Z,101727.30
2018-08-31T02:27:06.323Z,101721.81
2018-08-31T02:29:34.717Z,101720.46
2018-08-31T02:32:02.951Z,101713.33
2018-08-31T02:34:31.376Z,101712.38
2018-08-31T02:37:00.028Z,101713.26
2018-08-31T02:39:28.723Z,101707.86
2018-08-31T02:41:57.436Z,101710.95
2018-08-31T02:44:25.815Z,101714.68
2018-08-31T02:46:54.029Z,101710.86
2018-08-31T02:49:22.450Z,101712.88
2018-08-31T02:51:51.173Z,101714.41
2018-08-31T02:54:19.671Z,101718.56
2018-08-31T02:56:48.346Z,101713.35
2018-08-31T02:59:16.765Z,101718.43
2018-08-31T03:04:25.387Z,101716.52
2018-08-31T03:06:54.356Z,101714.86
2018-08-31T03:09:22.487Z,101716.88
2018-08-31T03:11:51.772Z,101719.69
2018-08-31T03:14:19.888Z,101719.30
2018-08-31T03:16:48.529Z,101727.09
2018-08-31T03:19:16.844Z,101716.99
2018-08-31T03:21:45.792Z,101720.64
2018-08-31T03:24:14.508Z,101712.84
2018-08-31T03:26:43.283Z,101723.52
2018-08-31T03:29:12.496Z,101706.50
2018-08-31T03:31:41.041Z,101717.95
2018-08-31T03:34:09.763Z,101718.06
2018-08-31T03:36:38.612Z,101719.02
2018-08-31T03:39:09.010Z,101720.44
2018-08-31T03:41:37.549Z,101725.92
2018-08-31T03:44:06.193Z,101719.76
2018-08-31T03:46:35.213Z,101722.95
2018-08-31T03:49:03.693Z,101716.60
2018-08-31T03:51:32.300Z,101729.58
2018-08-31T03:54:00.433Z,101727.84
2018-08-31T03:56:29.156Z,101725.75
2018-08-31T03:58:57.941Z,101732.84
2018-08-31T04:01:26.061Z,101729.68
2018-08-31T04:03:54.585Z,101730.53
2018-08-31T04:06:23.296Z,101732.66
2018-08-31T04:08:51.494Z,101736.59
2018-08-31T04:11:20.209Z,101742.88
2018-08-31T04:13:48.320Z,101737.48
2018-08-31T04:16:16.448Z,101743.26
2018-08-31T04:18:44.816Z,101742.66
2018-08-31T04:21:13.410Z,101743.94
2018-08-31T04:23:41.664Z,101734.51
2018-08-31T04:26:10.431Z,101734.02
2018-08-31T04:28:38.951Z,101734.69
2018-08-31T04:31:07.304Z,101731.99
2018-08-31T04:33:35.783Z,101736.70
2018-08-31T04:36:04.420Z,101737.09
2018-08-31T04:38:32.879Z,101737.98
2018-08-31T04:41:01.380Z,101731.63
2018-08-31T04:43:30.324Z,101735.36
2018-08-31T04:45:58.773Z,101732.98
2018-08-31T04:48:27.482Z,101739.43
2018-08-31T04:50:55.588Z,101737.61
2018-08-31T04:53:24.345Z,101731.53
2018-08-31T04:55:52.800Z,101733.94
2018-08-31T04:58:21.044Z,101739.05
2018-08-31T05:00:49.768Z,101732.69
2018-08-31T05:03:18.188Z,101736.27
2018-08-31T05:05:46.414Z,101736.27
2018-08-31T05:08:15.349Z,101740.20
2018-08-31T05:10:43.703Z,101734.92
2018-08-31T05:13:12.404Z,101737.62
2018-08-31T05:15:40.575Z,101736.73
2018-08-31T05:18:09.573Z,101736.27
2018-08-31T05:20:38.018Z,101735.66
2018-08-31T05:23:06.215Z,101734.31
2018-08-31T05:25:34.623Z,101733.64
2018-08-31T05:28:03.278Z,101737.88
2018-08-31T05:30:31.378Z,101737.48
2018-08-31T05:33:00.065Z,101744.12
2018-08-31T05:35:28.596Z,101742.37
2018-08-31T05:37:56.969Z,101743.42
2018-08-31T05:40:25.337Z,101741.97
2018-08-31T05:42:53.925Z,101747.36
2018-08-31T05:45:22.267Z,101750.17
2018-08-31T05:47:50.720Z,101751.80
2018-08-31T05:50:19.723Z,101760.44
2018-08-31T05:52:48.431Z,101757.09
2018-08-31T05:55:16.948Z,101762.27
2018-08-31T05:57:45.560Z,101768.44
2018-08-31T06:00:13.691Z,101766.40
2018-08-31T06:02:41.798Z,101771.88
2018-08-31T06:05:10.459Z,101771.30
2018-08-31T06:07:38.944Z,101765.58
2018-08-31T06:10:07.520Z,101775.92
2018-08-31T06:12:35.992Z,101777.70
2018-08-31T06:15:04.996Z,101777.75
2018-08-31T06:17:33.660Z,101776.34
2018-08-31T06:20:02.108Z,101773.52
2018-08-31T06:22:30.489Z,101770.06
2018-08-31T06:24:59.194Z,101776.56
2018-08-31T06:27:33.329Z,101775.16
2018-08-31T06:30:01.818Z,101773.95
2018-08-31T06:32:33.175Z,101773.25
2018-08-31T06:35:04.156Z,101774.67
2018-08-31T06:37:35.566Z,101772.02
2018-08-31T06:40:14.560Z,101774.08
2018-08-31T06:42:43.055Z,101777.68
2018-08-31T06:45:11.465Z,101777.84
2018-08-31T06:47:40.959Z,101780.98
2018-08-31T06:50:09.401Z,101781.03
2018-08-31T06:52:37.752Z,101785.58
2018-08-31T06:55:06.164Z,101787.53
2018-08-31T06:57:35.030Z,101782.92
2018-08-31T07:00:03.420Z,101781.03
2018-08-31T07:02:31.760Z,101787.13
2018-08-31T07:05:00.219Z,101776.28
2018-08-31T07:07:28.561Z,101777.17
2018-08-31T07:09:57.303Z,101777.04
2018-08-31T07:12:28.420Z,101781.61
2018-08-31T07:14:59.767Z,101778.38
2018-08-31T07:17:28.149Z,101767.66
2018-08-31T07:19:56.916Z,101781.73
2018-08-31T07:22:25.781Z,101776.20
2018-08-31T07:24:54.469Z,101768.39
2018-08-31T07:27:22.912Z,101762.73
2018-08-31T07:29:51.032Z,101771.22
2018-08-31T07:32:19.832Z,101776.64
2018-08-31T07:34:48.699Z,101767.41
2018-08-31T07:37:17.165Z,101778.15
2018-08-31T07:39:46.304Z,101775.97
2018-08-31T07:42:14.898Z,101780.27
2018-08-31T07:44:43.789Z,101776.60
2018-08-31T07:47:12.257Z,101778.08
2018-08-31T07:49:41.228Z,101787.31
2018-08-31T07:52:09.832Z,101787.33
2018-08-31T07:54:38.795Z,101789.30
2018-08-31T07:57:07.684Z,101784.48
2018-08-31T07:59:36.452Z,101792.39
2018-08-31T08:02:04.573Z,101794.78
2018-08-31T08:04:33.028Z,101795.48
2018-08-31T08:07:01.893Z,101793.71
2018-08-31T08:09:30.356Z,101791.83
2018-08-31T08:11:59.219Z,101797.55
2018-08-31T08:14:27.833Z,101787.97
2018-08-31T08:16:56.293Z,101793.39
2018-08-31T08:19:24.633Z,101801.45
2018-08-31T08:21:52.795Z,101798.83
2018-08-31T08:24:21.298Z,101803.78
2018-08-31T08:26:50.172Z,101801.27
2018-08-31T08:29:18.967Z,101806.86
2018-08-31T08:31:47.827Z,101813.53
2018-08-31T08:34:16.270Z,101808.45
2018-08-31T08:36:45.578Z,101804.49
2018-08-31T08:39:13.756Z,101808.59
2018-08-31T08:41:42.542Z,101815.63
2018-08-31T08:44:11.238Z,101813.41
2018-08-31T08:46:41.388Z,101810.94
2018-08-31T08:49:09.779Z,101823.02
2018-08-31T08:51:37.916Z,101821.70
2018-08-31T08:54:07.710Z,101818.87
2018-08-31T08:56:37.147Z,101812.63
2018-08-31T08:59:05.277Z,101810.47
2018-08-31T09:01:33.984Z,101810.14
2018-08-31T09:04:03.120Z,101813.04
2018-08-31T09:06:37.583Z,101813.34
2018-08-31T09:09:14.055Z,101803.79
2018-08-31T09:11:48.300Z,101811.55
2018-08-31T09:14:22.801Z,101814.16
2018-08-31T09:16:56.968Z,101814.31
2018-08-31T09:19:30.303Z,101814.91
2018-08-31T09:22:04.441Z,101816.23
2018-08-31T09:24:33.478Z,101821.06
2018-08-31T09:27:02.085Z,101818.34
2018-08-31T09:29:30.564Z,101819.87
2018-08-31T09:31:58.710Z,101820.12
2018-08-31T09:34:27.157Z,101814.00
2018-08-31T09:36:56.212Z,101811.80
2018-08-31T09:39:24.792Z,101812.52
2018-08-31T09:41:53.483Z,101808.78
2018-08-31T09:44:22.057Z,101810.34
2018-08-31T09:46:50.232Z,101804.69
2018-08-31T09:49:18.974Z,101801.88
2018-08-31T09:51:47.445Z,101804.59
2018-08-31T09:54:16.188Z,101806.89
2018-08-31T09:56:44.925Z,101801.38
2018-08-31T09:59:13.407Z,101797.48
2018-08-31T10:01:42.159Z,101798.25
2018-08-31T10:04:10.298Z,101792.75
2018-08-31T10:06:38.728Z,101783.16
2018-08-31T10:09:08.076Z,101785.64
2018-08-31T10:11:36.228Z,101782.19
2018-08-31T10:14:04.672Z,101790.28
2018-08-31T10:16:32.802Z,101789.13
2018-08-31T10:19:01.371Z,101792.73
2018-08-31T10:21:29.849Z,101787.25
2018-08-31T10:23:58.347Z,101791.25
2018-08-31T10:26:26.930Z,101776.20
2018-08-31T10:28:55.473Z,101784.97
2018-08-31T10:31:24.141Z,101784.78
2018-08-31T10:33:52.801Z,101789.33
2018-08-31T10:36:21.316Z,101786.08
2018-08-31T10:38:49.778Z,101778.52
2018-08-31T10:41:17.904Z,101778.45
2018-08-31T10:43:46.459Z,101779.22
2018-08-31T10:46:15.199Z,101774.80
2018-08-31T10:48:43.965Z,101775.77
2018-08-31T10:51:12.408Z,101770.58
2018-08-31T10:53:41.292Z,101754.09
2018-08-31T10:56:09.732Z,101767.66
2018-08-31T10:58:38.236Z,101772.80
2018-08-31T11:01:06.616Z,101772.81
2018-08-31T11:03:35.366Z,101769.80
2018-08-31T11:06:04.289Z,101766.37
2018-08-31T11:08:32.764Z,101762.59
2018-08-31T11:11:00.952Z,101756.21
2018-08-31T11:13:29.387Z,101751.99
2018-08-31T11:15:57.851Z,101757.05
2018-08-31T11:18:26.364Z,101749.94
2018-08-31T11:20:54.829Z,101752.84
2018-08-31T11:23:35.384Z,101752.58
2018-08-31T11:26:03.907Z,101754.75
2018-08-31T11:28:32.361Z,101753.81
2018-08-31T11:31:00.823Z,101751.73
2018-08-31T11:33:29.360Z,101748.84
2018-08-31T11:35:58.315Z,101747.26
2018-08-31T11:38:26.940Z,101749.02
2018-08-31T11:40:55.528Z,101744.88
2018-08-31T11:43:24.340Z,101742.98
2018-08-31T11:45:53.529Z,101742.33
2018-08-31T11:48:22.277Z,101743.95
2018-08-31T11:50:51.208Z,101738.21
2018-08-31T11:53:19.390Z,101744.63
2018-08-31T11:55:47.849Z,101751.95
2018-08-31T11:58:16.328Z,101735.86
2018-08-31T12:00:45.078Z,101739.89
2018-08-31T12:03:13.748Z,101736.49
2018-08-31T12:05:42.151Z,101736.93
2018-08-31T12:08:10.688Z,101741.27
2018-08-31T12:10:39.360Z,101743.78
2018-08-31T12:13:08.076Z,101742.36
2018-08-31T12:15:37.005Z,101747.63
2018-08-31T12:18:05.921Z,101742.41
2018-08-31T12:20:34.072Z,101742.33
2018-08-31T12:23:02.594Z,101741.36
2018-08-31T12:25:31.056Z,101751.72
2018-08-31T12:27:59.949Z,101734.58
2018-08-31T12:30:28.397Z,101749.00
2018-08-31T12:32:56.846Z,101743.00
2018-08-31T12:35:25.113Z,101747.47
2018-08-31T12:37:53.333Z,101750.03
2018-08-31T12:40:21.459Z,101762.92
2018-08-31T12:42:49.569Z,101751.00
2018-08-31T12:45:18.005Z,101757.11
2018-08-31T12:47:46.777Z,101758.16
2018-08-31T12:50:15.401Z,101760.34
2018-08-31T12:52:43.836Z,101759.11
2018-08-31T12:55:12.500Z,101756.46
2018-08-31T12:57:41.756Z,101764.98
2018-08-31T13:00:10.199Z,101764.53
2018-08-31T13:02:38.816Z,101775.15
2018-08-31T13:05:07.720Z,101763.17
2018-08-31T13:07:36.126Z,101769.77
2018-08-31T13:10:04.245Z,101779.70
2018-08-31T13:12:32.678Z,101778.20
2018-08-31T13:15:01.131Z,101777.41
2018-08-31T13:17:29.693Z,101770.70
2018-08-31T13:19:58.473Z,101771.72
2018-08-31T13:22:27.383Z,101759.70
2018-08-31T13:24:56.207Z,101769.98
2018-08-31T13:27:24.627Z,101766.05
2018-08-31T13:29:53.081Z,101763.45
2018-08-31T13:32:21.616Z,101763.45
2018-08-31T13:34:50.061Z,101760.06
2018-08-31T13:37:18.760Z,101761.95
2018-08-31T13:39:47.721Z,101759.05
2018-08-31T13:42:16.184Z,101763.06
2018-08-31T13:44:44.856Z,101763.42
2018-08-31T13:47:13.628Z,101759.45
2018-08-31T13:49:42.064Z,101759.52
2018-08-31T13:52:10.631Z,101756.91
2018-08-31T13:54:38.984Z,101761.98
2018-08-31T13:57:07.499Z,101760.52
2018-08-31T13:59:36.192Z,101759.73
2018-08-31T14:02:04.635Z,101763.73
2018-08-31T14:04:32.737Z,101752.63
2018-08-31T14:07:01.533Z,101756.34
2018-08-31T14:09:30.010Z,101754.15
2018-08-31T14:11:58.345Z,101760.00
2018-08-31T14:14:27.236Z,101759.47
2018-08-31T14:16:55.839Z,101753.42
2018-08-31T14:19:24.597Z,101751.47
2018-08-31T14:21:53.317Z,101745.87
2018-08-31T14:24:21.468Z,101750.73
2018-08-31T14:26:49.932Z,101744.64
2018-08-31T14:29:18.718Z,101749.13
2018-08-31T14:31:47.669Z,101739.70
2018-08-31T14:34:15.804Z,101743.53
2018-08-31T14:36:43.913Z,101739.35
2018-08-31T14:39:12.425Z,101739.09
2018-08-31T14:41:42.144Z,101746.22
2018-08-31T14:44:10.729Z,101742.47
2018-08-31T14:46:39.400Z,101735.65
2018-08-31T14:49:07.946Z,101736.24
2018-08-31T14:51:36.700Z,101736.14
2018-08-31T14:54:05.057Z,101733.12
2018-08-31T14:56:33.689Z,101740.72
2018-08-31T14:59:02.165Z,101741.73
2018-08-31T15:01:31.010Z,101732.52
2018-08-31T15:03:59.722Z,101734.35
2018-08-31T15:06:33.581Z,101722.02
2018-08-31T15:09:07.650Z,101722.16
2018-08-31T15:11:36.211Z,101729.02
2018-08-31T15:14:04.441Z,101734.85
2018-08-31T15:16:32.905Z,101732.59
2018-08-31T15:19:01.700Z,101732.44
2018-08-31T15:21:30.151Z,101743.61
2018-08-31T15:23:59.092Z,101739.90
2018-08-31T15:26:27.438Z,101735.20
2018-08-31T15:28:56.076Z,101732.57
2018-08-31T15:31:24.822Z,101739.35
2018-08-31T15:33:53.932Z,101737.83
2018-08-31T15:36:22.414Z,101743.30
2018-08-31T15:38:51.156Z,101740.55
2018-08-31T15:41:19.952Z,101736.01
2018-08-31T15:43:48.417Z,101739.45
2018-08-31T15:46:18.489Z,101732.25
2018-08-31T15:48:47.228Z,101735.33
2018-08-31T15:51:15.556Z,101729.61
2018-08-31T15:53:44.298Z,101731.33
2018-08-31T15:56:12.852Z,101732.33
2018-08-31T15:58:42.419Z,101733.00
2018-08-31T16:01:10.645Z,101736.08
2018-08-31T16:03:39.111Z,101741.45
2018-08-31T16:06:10.027Z,101743.30
2018-08-31T16:08:38.464Z,101744.64
2018-08-31T16:11:06.920Z,101750.36
2018-08-31T16:13:35.443Z,101749.69
2018-08-31T16:16:03.879Z,101752.81
2018-08-31T16:18:32.509Z,101754.70
2018-08-31T16:21:01.726Z,101755.45
2018-08-31T16:23:30.519Z,101751.58
2018-08-31T16:26:00.656Z,101752.06
2018-08-31T16:28:42.342Z,101756.14
2018-08-31T16:31:11.728Z,101754.91
2018-08-31T16:33:40.231Z,101754.63
2018-08-31T16:36:09.014Z,101761.53
2018-08-31T16:38:38.211Z,101756.69
2018-08-31T16:41:06.853Z,101760.23
2018-08-31T16:43:35.339Z,101759.31
2018-08-31T16:46:04.001Z,101765.99
2018-08-31T16:48:32.468Z,101758.41
2018-08-31T16:51:01.141Z,101770.55
2018-08-31T16:53:29.547Z,101758.95
2018-08-31T16:55:57.856Z,101766.64
2018-08-31T16:58:26.356Z,101763.64
2018-08-31T17:00:55.241Z,101772.81
2018-08-31T17:03:24.101Z,101767.08
2018-08-31T17:05:52.733Z,101775.60
2018-08-31T17:08:21.128Z,101778.14
2018-08-31T17:10:49.252Z,101784.70
2018-08-31T17:13:17.671Z,101788.64
2018-08-31T17:15:45.980Z,101789.73
2018-08-31T17:18:14.101Z,101791.62
2018-08-31T17:20:42.225Z,101789.73
2018-08-31T17:23:11.006Z,101794.55
2018-08-31T17:25:39.731Z,101796.20
2018-08-31T17:28:13.527Z,101796.24
2018-08-31T17:30:42.429Z,101793.39
2018-08-31T17:33:16.768Z,101796.36
2018-08-31T17:35:50.448Z,101793.54
2018-08-31T17:38:18.802Z,101802.05
2018-08-31T17:40:47.203Z,101803.64
2018-08-31T17:43:15.632Z,101802.19
2018-08-31T17:45:44.296Z,101803.47
2018-08-31T17:48:12.696Z,101814.70
2018-08-31T17:50:42.485Z,101813.25
2018-08-31T17:53:11.152Z,101811.84
2018-08-31T17:55:39.507Z,101809.02
2018-08-31T17:58:08.116Z,101817.15
2018-08-31T18:00:36.232Z,101823.41
2018-08-31T18:03:04.696Z,101824.55
2018-08-31T18:05:48.956Z,101830.52
2018-08-31T18:08:17.667Z,101830.37
2018-08-31T18:10:46.106Z,101821.91
2018-08-31T18:13:14.601Z,101820.45
2018-08-31T18:15:43.462Z,101820.03
2018-08-31T18:18:12.229Z,101828.27
2018-08-31T18:20:40.682Z,101827.17
2018-08-31T18:23:09.195Z,101829.33
2018-08-31T18:25:37.321Z,101830.20
2018-08-31T18:28:06.408Z,101829.47
2018-08-31T18:30:35.169Z,101833.34
2018-08-31T18:33:03.379Z,101834.34
2018-08-31T18:35:32.247Z,101840.58
2018-08-31T18:38:01.637Z,101844.72
2018-08-31T18:40:30.230Z,101848.02
2018-08-31T18:42:58.690Z,101843.09
2018-08-31T18:45:27.112Z,101852.92
2018-08-31T18:47:55.413Z,101848.25
2018-08-31T18:50:24.173Z,101849.61
2018-08-31T18:52:52.307Z,101853.97
2018-08-31T18:55:21.253Z,101854.89
2018-08-31T18:57:54.892Z,101858.31
2018-08-31T19:00:23.212Z,101858.56
2018-08-31T19:02:53.231Z,101863.28
2018-08-31T19:05:22.157Z,101861.59
2018-08-31T19:07:50.277Z,101861.59
2018-08-31T19:10:18.767Z,101864.62
2018-08-31T19:12:47.221Z,101865.77
2018-08-31T19:15:15.872Z,101865.66
2018-08-31T19:17:44.265Z,101867.27
2018-08-31T19:20:12.739Z,101875.99
2018-08-31T19:22:42.256Z,101878.16
2018-08-31T19:25:10.787Z,101875.58
2018-08-31T19:27:39.614Z,101884.20
2018-08-31T19:30:08.124Z,101887.44
2018-08-31T19:32:36.237Z,101874.98
2018-08-31T19:35:04.687Z,101880.87
2018-08-31T19:37:33.052Z,101887.09
2018-08-31T19:40:01.252Z,101888.23
2018-08-31T19:42:29.373Z,101888.26
2018-08-31T19:44:58.062Z,101891.01
2018-08-31T19:47:26.700Z,101894.78
2018-08-31T19:49:55.275Z,101891.59
2018-08-31T19:52:23.384Z,101890.03
2018-08-31T19:54:51.792Z,101890.33
2018-08-31T19:57:20.138Z,101895.93
2018-08-31T19:59:48.290Z,101891.49
2018-08-31T20:02:16.839Z,101894.94
2018-08-31T20:04:45.592Z,101894.84
2018-08-31T20:07:14.374Z,101896.22
2018-08-31T20:09:42.521Z,101898.58
2018-08-31T20:12:10.637Z,101903.55
2018-08-31T20:14:39.067Z,101905.16
2018-08-31T20:17:07.227Z,101910.60
2018-08-31T20:19:35.846Z,101912.86
2018-08-31T20:22:04.337Z,101910.65
2018-08-31T20:24:32.820Z,101920.16
2018-08-31T20:27:01.230Z,101916.34
2018-08-31T20:29:29.377Z,101920.04
2018-08-31T20:31:58.013Z,101919.56
2018-08-31T20:34:26.491Z,101930.05
2018-08-31T20:36:55.472Z,101936.23
2018-08-31T20:39:23.619Z,101938.42
2018-08-31T20:41:52.353Z,101931.72
2018-08-31T20:44:20.533Z,101937.52
2018-08-31T20:46:48.719Z,101936.27
2018-08-31T20:49:17.095Z,101944.06
2018-08-31T20:51:45.968Z,101951.94
2018-08-31T20:54:14.723Z,101948.83
2018-08-31T20:56:43.268Z,101958.81
2018-08-31T20:59:11.717Z,101960.62
2018-08-31T21:01:40.192Z,101955.89
2018-08-31T21:04:08.340Z,101959.47
2018-08-31T21:06:36.703Z,101963.76
2018-08-31T21:09:07.292Z,101959.05
2018-08-31T21:11:35.770Z,101955.24
2018-08-31T21:14:04.640Z,101964.58
2018-08-31T21:16:33.179Z,101961.11
2018-08-31T21:19:01.611Z,101963.03
2018-08-31T21:21:30.089Z,101962.39
2018-08-31T21:23:58.873Z,101961.00
2018-08-31T21:26:27.548Z,101958.73
2018-08-31T21:28:55.660Z,101956.48
2018-08-31T21:31:24.192Z,101965.42
2018-08-31T21:33:52.508Z,101961.31
2018-08-31T21:44:03.551Z,101975.15
2018-08-31T21:46:32.007Z,101974.12
2018-08-31T21:49:00.580Z,101976.80
2018-08-31T21:51:28.707Z,101973.56
2018-08-31T21:53:57.708Z,101972.42
2018-08-31T21:56:26.228Z,101974.10
2018-08-31T21:58:54.968Z,101972.95
2018-08-31T22:01:28.999Z,101973.08
2018-08-31T22:03:57.425Z,101976.03
2018-08-31T22:06:25.880Z,101971.03
2018-08-31T22:08:54.880Z,101974.95
2018-08-31T22:11:23.621Z,101972.69
2018-08-31T22:13:52.540Z,101971.73
2018-08-31T22:16:20.865Z,101968.97
2018-08-31T22:18:48.992Z,101971.66
2018-08-31T22:21:17.739Z,101976.13
2018-08-31T22:23:46.279Z,101980.19
2018-08-31T22:26:14.444Z,101977.27
2018-08-31T22:28:42.788Z,101978.77
2018-08-31T22:31:10.898Z,101974.62
2018-08-31T22:33:39.874Z,101981.87
2018-08-31T22:36:08.335Z,101977.07
2018-08-31T22:38:36.786Z,101976.30
2018-08-31T22:41:04.889Z,101975.47
2018-08-31T22:43:39.111Z,101978.09
2018-08-31T22:46:07.364Z,101974.64
2018-08-31T22:48:36.005Z,101979.48
2018-08-31T22:51:04.988Z,101976.36
2018-08-31T22:53:34.037Z,101974.06
2018-08-31T22:56:02.707Z,101968.81
2018-08-31T22:58:31.669Z,101969.32
2018-08-31T23:01:00.291Z,101971.30
2018-08-31T23:03:28.952Z,101970.79
2018-08-31T23:05:57.937Z,101973.11
2018-08-31T23:08:26.704Z,101972.84
2018-08-31T23:10:55.180Z,101973.34
2018-08-31T23:13:23.804Z,101976.13
2018-08-31T23:15:52.856Z,101975.47
2018-08-31T23:18:21.303Z,101972.50
2018-08-31T23:20:49.699Z,101975.13
2018-08-31T23:23:23.576Z,101972.84
2018-08-31T23:25:52.475Z,101980.57
2018-08-31T23:28:22.206Z,101988.11
2018-08-31T23:30:51.091Z,101977.75
2018-08-31T23:33:19.834Z,101983.39
2018-08-31T23:35:48.415Z,101980.49
2018-08-31T23:38:16.813Z,101982.07
2018-08-31T23:40:45.497Z,101981.30
2018-08-31T23:43:13.966Z,101977.82
2018-08-31T23:45:42.827Z,101978.90
2018-08-31T23:48:11.316Z,101983.56
2018-08-31T23:50:39.944Z,101978.19
2018-08-31T23:53:08.115Z,101978.38
2018-08-31T23:55:36.848Z,101982.65
2018-08-31T23:58:05.292Z,101976.27
